Time;durP1;ratioP1;P1;durP2;ratioP2;P2;SDS_P1;SDS_P2;PMS_P1;PMS_P2;Temp;Humidity;BMP_temperature;BMP_pressure;BME280_temperature;BME280_humidity;BME280_pressure;Samples;Min_cycle;Max_cycle;Signal;HPM_P1;HPM_P2
2023/01/21 00:00:55;;;;;;;40.85;24.98;;;;;;;4.01;58.60;102439.41;6182014;23;20021;-67
2023/01/21 00:03:21;;;;;;;44.13;24.40;;;;;;;4.01;58.42;102436.75;6181399;23;20060;-67
2023/01/21 00:05:48;;;;;;;45.35;25.10;;;;;;;4.02;58.49;102442.03;6181946;23;20370;-67
2023/01/21 00:08:15;;;;;;;40.80;24.02;;;;;;;4.02;58.41;102444.69;6181668;23;20484;-67
2023/01/21 00:10:41;;;;;;;41.13;24.63;;;;;;;4.03;58.38;102449.13;6181813;23;20051;-67
2023/01/21 00:13:08;;;;;;;40.13;24.92;;;;;;;4.01;58.36;102450.03;6181494;23;20017;-67
2023/01/21 00:15:35;;;;;;;39.97;23.50;;;;;;;4.01;58.46;102450.03;6181628;23;20021;-67
2023/01/21 00:18:02;;;;;;;43.92;24.23;;;;;;;3.98;58.33;102458.06;6181594;23;20024;-67
2023/01/21 00:20:28;;;;;;;43.58;25.85;;;;;;;3.97;58.41;102461.63;6181897;23;20017;-67
2023/01/21 00:22:55;;;;;;;42.35;25.17;;;;;;;3.94;58.40;102459.91;6181689;23;20344;-67
2023/01/21 00:25:21;;;;;;;43.45;25.10;;;;;;;3.93;58.42;102467.91;6181029;23;20020;-67
2023/01/21 00:27:48;;;;;;;47.58;26.70;;;;;;;3.91;58.38;102475.03;6181516;23;20014;-67
2023/01/21 00:30:15;;;;;;;49.15;27.25;;;;;;;3.88;58.32;102468.00;6181813;22;20017;-67
2023/01/21 00:32:42;;;;;;;48.40;27.98;;;;;;;3.87;58.53;102468.91;6181393;23;20295;-68
2023/01/21 00:35:09;;;;;;;45.83;27.02;;;;;;;3.87;58.47;102468.91;6155664;23;20020;-67
2023/01/21 00:37:35;;;;;;;52.35;27.55;;;;;;;3.87;58.50;102463.59;6181584;23;20444;-67
2023/01/21 00:40:04;;;;;;;44.50;26.60;;;;;;;3.88;58.58;102470.66;6181383;23;20104;-67
2023/01/21 00:42:31;;;;;;;48.25;27.98;;;;;;;3.89;58.55;102474.19;6181351;23;20071;-68
2023/01/21 00:44:58;;;;;;;49.70;26.85;;;;;;;3.88;58.60;102473.31;6181802;22;20017;-67
2023/01/21 00:47:25;;;;;;;47.80;27.73;;;;;;;3.89;58.49;102471.53;6181469;23;20092;-67
2023/01/21 00:49:52;;;;;;;49.70;27.45;;;;;;;3.89;58.54;102483.03;6181544;23;20324;-67
2023/01/21 00:52:18;;;;;;;48.05;28.50;;;;;;;3.87;58.46;102484.84;6181133;23;20014;-67
2023/01/21 00:54:45;;;;;;;49.67;28.13;;;;;;;3.87;58.55;102484.84;6181791;23;20036;-67
2023/01/21 00:57:12;;;;;;;49.55;28.98;;;;;;;3.87;58.46;102489.28;6181929;23;20013;-66
2023/01/21 00:59:39;;;;;;;49.30;28.20;;;;;;;3.85;58.58;102497.28;6181857;23;20348;-66
2023/01/21 01:02:07;;;;;;;50.00;28.85;;;;;;;3.84;58.58;102500.84;6181166;23;20017;-66
2023/01/21 01:04:34;;;;;;;54.30;29.80;;;;;;;3.82;58.52;102503.53;6181383;23;20092;-67
2023/01/21 01:07:00;;;;;;;49.38;29.33;;;;;;;3.82;58.46;102505.31;6181316;23;20023;-66
2023/01/21 01:09:27;;;;;;;51.90;28.20;;;;;;;3.81;58.52;102516.84;6181612;23;20032;-67
2023/01/21 01:11:54;;;;;;;56.47;31.42;;;;;;;3.80;58.56;102525.72;6181319;22;20009;-66
2023/01/21 01:14:21;;;;;;;48.13;30.45;;;;;;;3.79;58.65;102523.97;6181599;22;20009;-67
2023/01/21 01:16:48;;;;;;;54.50;30.67;;;;;;;3.78;58.70;102530.19;6181026;23;20459;-67
2023/01/21 01:19:15;;;;;;;58.35;29.98;;;;;;;3.77;58.67;102542.59;6181173;23;20084;-66
2023/01/21 01:21:42;;;;;;;53.40;31.17;;;;;;;3.76;58.59;102551.47;6180856;23;20070;-67
2023/01/21 01:24:08;;;;;;;53.67;30.35;;;;;;;3.76;58.60;102558.56;6181091;23;20066;-67
2023/01/21 01:26:35;;;;;;;54.60;31.95;;;;;;;3.75;58.58;102570.97;6181222;23;20017;-67
2023/01/21 01:29:05;;;;;;;59.00;30.95;;;;;;;3.75;58.63;102578.94;6181160;23;20463;-66
2023/01/21 01:31:32;;;;;;;57.17;31.85;;;;;;;3.74;58.53;102581.63;6180976;23;20119;-66
2023/01/21 01:33:58;;;;;;;55.85;31.77;;;;;;;3.72;58.56;102578.09;6181234;23;20389;-66
2023/01/21 01:36:25;;;;;;;52.47;30.83;;;;;;;3.70;58.71;102586.06;6181190;23;20016;-66
2023/01/21 01:38:52;;;;;;;60.97;34.28;;;;;;;3.69;58.60;102586.97;6182745;23;20032;-67
2023/01/21 01:41:26;;;;;;;56.17;31.48;;;;;;;3.67;58.55;102593.19;6182073;23;20017;-66
2023/01/21 01:44:02;;;;;;;59.58;33.25;;;;;;;3.66;58.61;102599.41;6182179;23;20038;-67
2023/01/21 01:46:34;;;;;;;60.30;32.95;;;;;;;3.65;58.61;102600.31;6182390;23;20075;-66
2023/01/21 01:49:10;;;;;;;56.72;34.17;;;;;;;3.65;58.59;102601.19;6156064;23;20348;-67
2023/01/21 01:51:52;;;;;;;58.53;32.10;;;;;;;3.62;58.62;102603.91;6182256;23;20024;-66
2023/01/21 01:54:26;;;;;;;56.72;32.03;;;;;;;3.62;58.61;102601.25;6182564;23;20017;-66
2023/01/21 01:56:55;;;;;;;60.78;31.65;;;;;;;3.62;58.49;102609.22;6182389;23;20439;-66
2023/01/21 01:59:22;;;;;;;60.95;35.30;;;;;;;3.62;58.56;102609.22;6182602;23;20024;-67
2023/01/21 02:01:48;;;;;;;63.13;34.75;;;;;;;3.64;58.66;102614.50;6182122;23;20024;-66
2023/01/21 02:04:26;;;;;;;64.55;34.50;;;;;;;3.63;58.58;102624.25;6182501;23;20013;-67
2023/01/21 02:06:54;;;;;;;58.38;33.22;;;;;;;3.63;58.53;102626.91;6182315;23;20029;-66
2023/01/21 02:09:22;;;;;;;61.38;34.83;;;;;;;3.62;58.55;102627.81;6182406;23;20017;-66
2023/01/21 02:11:48;;;;;;;61.60;33.97;;;;;;;3.62;58.58;102622.50;6181970;23;20239;-67
2023/01/21 02:14:15;;;;;;;54.83;32.70;;;;;;;3.60;58.44;102629.59;6182600;23;20021;-66
2023/01/21 02:16:56;;;;;;;60.63;33.22;;;;;;;3.58;58.50;102626.09;6182177;23;20088;-67
2023/01/21 02:19:41;;;;;;;58.38;33.53;;;;;;;3.56;58.70;102627.88;6182333;23;20020;-66
2023/01/21 02:22:43;;;;;;;67.13;32.35;;;;;;;3.53;58.51;102627.94;6182333;23;20336;-67
2023/01/21 02:25:31;;;;;;;65.18;33.67;;;;;;;3.48;58.48;102627.13;6182084;23;20444;-66
2023/01/21 02:28:35;;;;;;;59.35;32.03;;;;;;;3.45;58.45;102625.38;6182184;23;20021;-67
2023/01/21 02:31:14;;;;;;;63.58;32.92;;;;;;;3.42;58.46;102641.34;6182140;23;20448;-67
2023/01/21 02:34:06;;;;;;;59.78;31.92;;;;;;;3.40;58.49;102639.63;6181980;23;20097;-66
2023/01/21 02:36:48;;;;;;;60.30;32.92;;;;;;;3.38;58.53;102638.75;6182276;23;20021;-66
2023/01/21 02:39:34;;;;;;;65.50;33.42;;;;;;;3.37;58.45;102642.31;6182034;23;20517;-66
2023/01/21 02:42:07;;;;;;;56.92;32.08;;;;;;;3.38;58.54;102649.38;6181793;23;20339;-67
2023/01/21 02:44:45;;;;;;;61.38;33.55;;;;;;;3.37;58.48;102650.28;6182132;23;20088;-66
2023/01/21 02:47:39;;;;;;;60.67;32.60;;;;;;;3.37;58.53;102658.25;6182270;23;20013;-67
2023/01/21 02:50:21;;;;;;;55.78;30.05;;;;;;;3.37;58.62;102668.88;6181703;23;20025;-66
2023/01/21 02:52:59;;;;;;;60.83;30.95;;;;;;;3.35;58.56;102660.91;6155976;23;20372;-68
2023/01/21 02:55:36;;;;;;;62.75;32.67;;;;;;;3.35;58.61;102671.53;6181878;23;20021;-67
2023/01/21 02:58:13;;;;;;;57.05;29.65;;;;;;;3.34;58.54;102679.53;6182213;22;20025;-67
2023/01/21 03:00:51;;;;;;;59.63;32.15;;;;;;;3.32;58.49;102682.19;6181926;23;20066;-67
2023/01/21 03:03:24;;;;;;;58.05;31.13;;;;;;;3.33;58.50;102680.44;6181848;23;20390;-67
2023/01/21 03:05:50;;;;;;;58.97;31.48;;;;;;;3.31;58.53;102677.78;6155983;23;20017;-67
2023/01/21 03:08:24;;;;;;;60.85;31.95;;;;;;;3.32;58.47;102683.97;6182534;23;20092;-67
2023/01/21 03:11:07;;;;;;;58.63;31.73;;;;;;;3.32;58.62;102683.97;6182418;23;20021;-67
2023/01/21 03:16:55;;;;;;;57.45;29.40;;;;;;;3.27;58.36;102686.69;6188468;23;20013;-67
2023/01/21 03:20:08;;;;;;;58.42;29.45;;;;;;;3.25;58.52;102696.44;6183486;23;20013;-67
2023/01/21 03:22:37;;;;;;;55.20;29.27;;;;;;;3.23;58.50;102697.38;6213705;23;20086;-68
2023/01/21 03:25:06;;;;;;;56.60;29.50;;;;;;;3.22;58.69;102704.44;6184414;23;20019;-67
2023/01/21 03:27:35;;;;;;;58.75;31.35;;;;;;;3.22;58.55;102714.19;6182049;23;20448;-67
2023/01/21 03:30:09;;;;;;;58.83;31.77;;;;;;;3.19;58.47;102715.97;6181706;23;20375;-67
2023/01/21 03:32:38;;;;;;;58.92;31.88;;;;;;;3.19;58.47;102713.31;6181711;23;20325;-67
2023/01/21 03:35:06;;;;;;;58.10;31.52;;;;;;;3.19;58.67;102723.94;6155566;22;20024;-67
2023/01/21 03:37:39;;;;;;;58.33;31.30;;;;;;;3.19;58.62;102717.75;6155714;23;20025;-67
2023/01/21 03:40:45;;;;;;;60.10;31.60;;;;;;;3.17;58.58;102725.72;6155261;22;20021;-67
2023/01/21 03:43:11;;;;;;;59.88;30.02;;;;;;;3.17;58.47;102724.84;6175229;23;20021;-67
2023/01/21 03:46:00;;;;;;;58.28;31.35;;;;;;;3.14;58.46;102728.41;6181858;23;20024;-66
2023/01/21 03:48:42;;;;;;;59.05;30.75;;;;;;;3.14;58.47;102727.53;6155347;23;20021;-67
2023/01/21 03:51:15;;;;;;;60.65;31.48;;;;;;;3.11;58.65;102725.81;6155707;23;20023;-67
2023/01/21 03:53:42;;;;;;;61.05;32.28;;;;;;;3.10;58.49;102723.16;6155050;23;20070;-67
2023/01/21 03:56:09;;;;;;;56.58;29.63;;;;;;;3.07;58.65;102733.81;6181794;23;20017;-67
2023/01/21 03:58:35;;;;;;;55.95;30.38;;;;;;;3.08;58.54;102732.91;6181999;23;20024;-67
2023/01/21 04:01:02;;;;;;;57.55;30.23;;;;;;;3.08;58.66;102740.88;6182087;23;20044;-67
2023/01/21 04:03:29;;;;;;;59.03;30.92;;;;;;;3.07;58.61;102734.69;6181469;23;20538;-67
2023/01/21 04:05:55;;;;;;;61.45;31.58;;;;;;;3.09;58.65;102742.63;6181769;23;20082;-67
2023/01/21 04:08:22;;;;;;;59.10;29.92;;;;;;;3.08;58.68;102739.09;6182046;23;20340;-67
2023/01/21 04:10:48;;;;;;;61.03;31.30;;;;;;;3.08;58.95;102735.56;6182045;23;20428;-67
2023/01/21 04:13:15;;;;;;;56.80;30.58;;;;;;;3.07;58.58;102745.31;6181507;23;20017;-67
2023/01/21 04:15:41;;;;;;;57.72;29.80;;;;;;;3.07;58.78;102742.66;6181613;22;20047;-67
2023/01/21 04:18:08;;;;;;;60.80;32.00;;;;;;;3.09;58.68;102755.91;6181785;23;20043;-66
2023/01/21 04:20:34;;;;;;;53.20;31.02;;;;;;;3.09;58.73;102758.56;6181722;23;20017;-68
2023/01/21 04:23:01;;;;;;;54.38;30.67;;;;;;;3.07;58.61;102755.03;6181822;23;20013;-67
2023/01/21 04:25:27;;;;;;;58.30;30.60;;;;;;;3.05;58.62;102756.84;6182149;23;20017;-66
2023/01/21 04:27:54;;;;;;;57.28;29.73;;;;;;;3.05;58.69;102751.53;6181497;23;20024;-67
2023/01/21 04:30:20;;;;;;;56.15;30.17;;;;;;;3.04;58.64;102755.06;6181439;23;20021;-67
2023/01/21 04:32:47;;;;;;;57.35;31.40;;;;;;;3.04;58.74;102761.25;6181338;23;20017;-66
2023/01/21 04:35:13;;;;;;;58.40;31.40;;;;;;;3.04;58.58;102761.25;6181653;23;20016;-66
2023/01/21 04:37:40;;;;;;;56.00;29.92;;;;;;;3.04;58.63;102766.56;6181620;23;20021;-67
2023/01/21 04:40:07;;;;;;;54.65;28.75;;;;;;;3.03;58.57;102766.59;6181439;23;20020;-66
2023/01/21 04:42:34;;;;;;;56.40;29.73;;;;;;;3.01;58.68;102765.72;6181079;23;20027;-69
2023/01/21 04:45:00;;;;;;;61.03;30.30;;;;;;;3.01;58.76;102766.59;6181596;23;20023;-66
2023/01/21 04:47:27;;;;;;;57.78;29.65;;;;;;;3.01;58.56;102769.25;6181515;23;20013;-67
2023/01/21 04:49:53;;;;;;;58.10;30.42;;;;;;;2.99;58.66;102762.19;6181698;23;20317;-66
2023/01/21 04:52:20;;;;;;;55.28;30.98;;;;;;;2.98;58.63;102768.41;6181198;23;20017;-66
2023/01/21 04:54:47;;;;;;;59.40;29.33;;;;;;;2.96;58.70;102770.16;6181536;23;20492;-66
2023/01/21 04:57:13;;;;;;;52.85;28.30;;;;;;;2.94;58.63;102767.50;6181529;23;20491;-66
2023/01/21 04:59:40;;;;;;;57.60;28.42;;;;;;;2.93;58.61;102763.09;6181288;23;20023;-67
2023/01/21 05:02:06;;;;;;;55.80;28.20;;;;;;;2.93;58.54;102764.88;6181014;23;20088;-66
2023/01/21 05:04:33;;;;;;;50.95;28.15;;;;;;;2.93;58.63;102767.53;6181671;23;20047;-67
2023/01/21 05:07:00;;;;;;;57.50;29.45;;;;;;;2.91;58.62;102766.66;6181573;23;20123;-66
2023/01/21 05:09:26;;;;;;;58.47;29.17;;;;;;;2.91;58.62;102780.81;6181330;23;20120;-67
2023/01/21 05:11:53;;;;;;;60.28;30.92;;;;;;;2.90;58.61;102778.16;6181259;23;20462;-67
2023/01/21 05:14:19;;;;;;;55.22;29.25;;;;;;;2.90;58.52;102781.69;6182661;23;20021;-67
2023/01/21 05:16:46;;;;;;;61.80;30.60;;;;;;;2.88;58.64;102784.38;6182474;23;20080;-66
2023/01/21 05:19:12;;;;;;;55.25;30.38;;;;;;;2.87;58.63;102787.91;6182485;23;20348;-67
2023/01/21 05:21:39;;;;;;;56.38;29.48;;;;;;;2.86;58.64;102801.19;6182207;23;20044;-66
2023/01/21 05:24:06;;;;;;;62.65;30.00;;;;;;;2.84;58.46;102797.69;6182947;23;20040;-67
2023/01/21 05:26:32;;;;;;;57.95;28.92;;;;;;;2.82;58.50;102802.13;6182156;23;20499;-67
2023/01/21 05:28:59;;;;;;;58.80;28.88;;;;;;;2.80;58.70;102801.25;6182487;23;20489;-67
2023/01/21 05:31:26;;;;;;;51.95;26.33;;;;;;;2.80;58.56;102806.56;6182564;23;20044;-66
2023/01/21 05:33:52;;;;;;;54.10;27.25;;;;;;;2.78;58.56;102811.88;6182316;23;20021;-66
2023/01/21 05:36:19;;;;;;;56.35;29.75;;;;;;;2.78;58.59;102813.66;6182585;23;20017;-66
2023/01/21 05:38:45;;;;;;;51.88;27.35;;;;;;;2.75;58.57;102814.53;6182311;23;20017;-67
2023/01/21 05:41:12;;;;;;;57.83;29.42;;;;;;;2.76;58.40;102818.09;6182414;23;20010;-67
2023/01/21 05:43:39;;;;;;;56.20;27.23;;;;;;;2.74;58.50;102815.44;6182395;23;20087;-66
2023/01/21 05:46:05;;;;;;;52.38;28.27;;;;;;;2.74;58.47;102817.22;6182619;23;20375;-66
2023/01/21 05:48:32;;;;;;;57.33;27.67;;;;;;;2.74;58.56;102822.53;6182362;23;20444;-66
2023/01/21 05:50:58;;;;;;;57.53;28.00;;;;;;;2.72;58.56;102821.66;6182092;23;20088;-66
2023/01/21 05:53:25;;;;;;;51.20;27.83;;;;;;;2.70;58.60;102824.31;6182318;23;20071;-66
2023/01/21 05:55:53;;;;;;;57.58;28.08;;;;;;;2.69;58.57;102817.25;6182467;22;20104;-66
2023/01/21 05:58:20;;;;;;;52.85;27.67;;;;;;;2.68;58.56;102827.88;6182275;23;20024;-66
2023/01/21 06:00:48;;;;;;;55.42;28.73;;;;;;;2.66;58.54;102824.34;6182084;23;20507;-66
2023/01/21 06:03:16;;;;;;;54.28;27.95;;;;;;;2.64;58.48;102834.09;6156110;23;20017;-67
2023/01/21 06:05:44;;;;;;;54.95;28.95;;;;;;;2.62;58.56;102839.41;6182075;23;20017;-66
2023/01/21 06:08:12;;;;;;;53.72;27.65;;;;;;;2.61;58.67;102840.28;6182140;22;20481;-66
2023/01/21 06:10:38;;;;;;;57.45;28.30;;;;;;;2.62;58.69;102843.81;6182083;23;20017;-67
2023/01/21 06:13:05;;;;;;;50.85;27.42;;;;;;;2.61;58.63;102840.28;6181866;23;20063;-66
2023/01/21 06:15:32;;;;;;;54.08;26.92;;;;;;;2.61;58.63;102848.25;6182019;23;20015;-66
2023/01/21 06:18:00;;;;;;;59.53;26.85;;;;;;;2.62;58.50;102854.44;6182092;23;20063;-65
2023/01/21 06:20:29;;;;;;;58.00;28.23;;;;;;;2.61;58.58;102850.91;6155657;23;20455;-65
2023/01/21 06:22:56;;;;;;;57.67;27.23;;;;;;;2.61;58.51;102855.31;6181809;23;20017;-66
2023/01/21 06:25:26;;;;;;;53.22;27.77;;;;;;;2.60;58.52;102862.41;6182473;22;20017;-66
2023/01/21 06:27:57;;;;;;;57.33;27.33;;;;;;;2.60;58.55;102865.06;6182299;22;20078;-66
2023/01/21 06:30:24;;;;;;;53.75;27.92;;;;;;;2.60;58.72;102867.72;6182140;23;20045;-66
2023/01/21 06:32:51;;;;;;;56.15;27.95;;;;;;;2.59;58.07;102875.66;6181944;23;20017;-66
2023/01/21 06:35:18;;;;;;;47.25;25.35;;;;;;;2.60;58.69;102880.09;6182177;23;20070;-67
2023/01/21 06:37:45;;;;;;;59.40;28.05;;;;;;;2.58;58.62;102877.44;6182202;23;20055;-66
2023/01/21 06:40:13;;;;;;;57.35;27.08;;;;;;;2.58;58.42;102884.53;6182084;23;20016;-66
2023/01/21 06:42:39;;;;;;;55.05;27.15;;;;;;;2.57;58.54;102885.41;6181986;23;20017;-66
2023/01/21 06:45:06;;;;;;;52.65;26.42;;;;;;;2.53;58.61;102887.19;6182430;23;20019;-66
2023/01/21 06:47:33;;;;;;;56.65;27.33;;;;;;;2.54;58.50;102886.31;6182073;23;20017;-66
2023/01/21 06:50:00;;;;;;;52.95;27.23;;;;;;;2.52;58.47;102896.91;6181929;23;20039;-65
2023/01/21 06:52:26;;;;;;;52.72;26.52;;;;;;;2.51;58.56;102896.94;6181783;23;20028;-66
2023/01/21 06:54:53;;;;;;;54.20;27.33;;;;;;;2.51;58.68;102904.88;6181905;23;20432;-65
2023/01/21 06:57:19;;;;;;;53.78;26.73;;;;;;;2.50;58.64;102904.00;6182343;23;20436;-66
2023/01/21 06:59:46;;;;;;;52.38;26.98;;;;;;;2.50;58.64;102903.13;6182120;23;20100;-66
2023/01/21 07:02:12;;;;;;;51.40;26.38;;;;;;;2.48;58.68;102905.78;6181918;22;20074;-66
2023/01/21 07:04:39;;;;;;;58.30;27.75;;;;;;;2.47;58.65;102908.44;6182128;23;20024;-66
2023/01/21 07:07:05;;;;;;;55.53;28.33;;;;;;;2.46;58.65;102911.97;6182163;23;20017;-66
2023/01/21 07:09:32;;;;;;;58.85;28.58;;;;;;;2.45;58.59;102912.88;6182091;23;20022;-65
2023/01/21 07:11:59;;;;;;;59.85;27.33;;;;;;;2.45;58.74;102929.66;6182034;23;20023;-66
2023/01/21 07:14:25;;;;;;;57.72;28.45;;;;;;;2.44;58.75;102933.22;6181861;23;20097;-66
2023/01/21 07:16:52;;;;;;;61.53;30.20;;;;;;;2.44;58.73;102935.84;6182042;23;20097;-66
2023/01/21 07:19:19;;;;;;;63.30;30.52;;;;;;;2.46;58.91;102942.03;6182042;23;20013;-66
2023/01/21 07:21:45;;;;;;;62.45;30.15;;;;;;;2.47;58.91;102946.44;6181759;23;20399;-67
2023/01/21 07:24:12;;;;;;;65.30;30.88;;;;;;;2.49;59.03;102943.78;6182210;22;20021;-66
2023/01/21 07:26:38;;;;;;;70.90;31.75;;;;;;;2.51;59.03;102942.91;6182722;23;20013;-66
2023/01/21 07:29:05;;;;;;;67.30;31.00;;;;;;;2.53;59.16;102948.19;6181972;23;20040;-67
2023/01/21 07:31:32;;;;;;;73.35;32.00;;;;;;;2.58;59.21;102950.81;6182051;23;20013;-67
2023/01/21 07:34:00;;;;;;;67.53;32.15;;;;;;;2.61;59.16;102950.81;6181675;23;20039;-66
2023/01/21 07:36:27;;;;;;;67.95;32.38;;;;;;;2.64;59.29;102959.63;6155385;22;20037;-64
2023/01/21 07:38:54;;;;;;;72.65;33.65;;;;;;;2.66;59.43;102955.22;6181869;23;20017;-66
2023/01/21 07:41:20;;;;;;;75.85;34.08;;;;;;;2.70;59.31;102959.63;6181890;23;20052;-65
2023/01/21 07:43:47;;;;;;;71.68;35.42;;;;;;;2.72;59.49;102964.91;6181645;23;20017;-65
2023/01/21 07:46:15;;;;;;;72.57;34.35;;;;;;;2.75;59.52;102972.84;6182178;22;20026;-66
2023/01/21 07:48:42;;;;;;;74.00;34.67;;;;;;;2.78;59.45;102976.38;6155208;23;20394;-66
2023/01/21 07:51:09;;;;;;;74.03;33.83;;;;;;;2.80;59.57;102984.31;6181671;23;20064;-66
2023/01/21 07:53:36;;;;;;;73.13;33.13;;;;;;;2.80;59.62;102990.53;6155421;23;20017;-65
2023/01/21 07:56:04;;;;;;;75.82;35.42;;;;;;;2.81;59.53;102996.72;6181893;23;20351;-65
2023/01/21 07:58:31;;;;;;;76.90;32.38;;;;;;;2.82;59.54;103003.78;6181721;23;20511;-65
2023/01/21 08:00:57;;;;;;;77.70;33.90;;;;;;;2.82;59.56;103004.66;6181571;23;20444;-66
2023/01/21 08:03:24;;;;;;;69.82;31.67;;;;;;;2.83;59.61;103014.38;6181785;23;20332;-66
2023/01/21 08:05:51;;;;;;;77.25;34.67;;;;;;;2.85;59.76;103006.41;6181682;23;20021;-67
2023/01/21 08:08:18;;;;;;;76.63;34.90;;;;;;;2.86;59.76;103013.50;6181753;23;20443;-66
2023/01/21 08:10:50;;;;;;;80.72;33.75;;;;;;;2.88;59.84;103017.00;6181735;23;20022;-66
2023/01/21 08:13:17;;;;;;;80.22;35.47;;;;;;;2.90;59.81;103025.84;6181403;23;20067;-66
2023/01/21 08:15:44;;;;;;;84.20;36.17;;;;;;;2.90;59.89;103027.63;6181731;23;20021;-66
2023/01/21 08:18:11;;;;;;;79.22;36.70;;;;;;;2.90;60.00;103044.44;6181861;22;20499;-66
2023/01/21 08:20:37;;;;;;;78.97;36.65;;;;;;;2.93;59.98;103048.84;6181854;23;20017;-66
2023/01/21 08:23:04;;;;;;;76.13;35.22;;;;;;;2.95;60.07;103058.56;6181574;23;20051;-66
2023/01/21 08:25:30;;;;;;;85.50;38.10;;;;;;;2.96;60.02;103054.13;6155311;23;20090;-67
2023/01/21 08:27:58;;;;;;;85.68;36.60;;;;;;;2.96;59.98;103065.63;6181672;23;20017;-66
2023/01/21 08:30:25;;;;;;;81.32;34.58;;;;;;;2.96;60.17;103065.63;6181552;23;20021;-67
2023/01/21 08:32:52;;;;;;;88.13;37.58;;;;;;;2.99;60.15;103072.75;6181297;23;20093;-66
2023/01/21 08:35:21;;;;;;;84.78;36.70;;;;;;;3.01;60.20;103063.00;6182002;23;20024;-66
2023/01/21 08:37:48;;;;;;;89.03;39.15;;;;;;;3.05;60.31;103075.38;6181431;23;20063;-66
2023/01/21 08:40:15;;;;;;;92.50;38.47;;;;;;;3.06;60.42;103071.81;6181570;23;20041;-66
2023/01/21 08:42:41;;;;;;;94.35;39.47;;;;;;;3.08;60.22;103081.53;6181445;22;20025;-65
2023/01/21 08:45:09;;;;;;;88.82;37.08;;;;;;;3.11;60.39;103092.16;6181568;23;20020;-67
2023/01/21 08:47:35;;;;;;;90.28;37.00;;;;;;;3.15;60.46;103088.59;6180999;23;20374;-66
2023/01/21 08:50:02;;;;;;;85.00;35.83;;;;;;;3.18;60.50;103083.28;6181887;23;20023;-67
2023/01/21 08:52:28;;;;;;;87.47;34.42;;;;;;;3.22;60.49;103091.22;6181221;23;20451;-66
2023/01/21 08:54:55;;;;;;;93.07;38.38;;;;;;;3.23;60.48;103092.97;6181082;23;20054;-66
2023/01/21 08:57:21;;;;;;;83.95;35.33;;;;;;;3.26;60.51;103098.28;6181525;23;20020;-66
2023/01/21 08:59:48;;;;;;;91.07;36.78;;;;;;;3.28;60.61;103099.16;6181506;23;20017;-67
2023/01/21 09:02:15;;;;;;;89.35;37.03;;;;;;;3.31;60.62;103091.16;6181579;23;20048;-67
2023/01/21 09:04:41;;;;;;;94.60;39.22;;;;;;;3.34;60.59;103096.47;6181917;23;20009;-66
2023/01/21 09:07:08;;;;;;;94.47;38.70;;;;;;;3.36;60.69;103100.00;6181327;23;20023;-66
2023/01/21 09:09:34;;;;;;;86.13;36.38;;;;;;;3.38;60.67;103098.22;6181320;23;20023;-67
2023/01/21 09:12:01;;;;;;;83.72;35.72;;;;;;;3.39;60.51;103102.63;6181033;23;20020;-67
2023/01/21 09:14:27;;;;;;;84.90;34.08;;;;;;;3.44;60.69;103084.91;6181193;23;20014;-67
2023/01/21 09:16:55;;;;;;;94.43;35.70;;;;;;;3.46;60.75;103094.63;6181157;23;20078;-64
2023/01/21 09:19:22;;;;;;;81.72;34.42;;;;;;;3.50;60.79;103099.03;6182720;23;20017;-66
2023/01/21 09:21:51;;;;;;;86.55;33.35;;;;;;;3.53;60.83;103100.78;6180981;23;20039;-66
2023/01/21 09:24:17;;;;;;;79.93;32.63;;;;;;;3.56;60.97;103100.78;6181175;23;20013;-66
2023/01/21 09:26:44;;;;;;;81.97;34.10;;;;;;;3.60;60.82;103102.50;6186592;22;20048;-66
2023/01/21 09:29:10;;;;;;;79.97;34.78;;;;;;;3.64;61.00;103098.94;6186324;23;20013;-66
2023/01/21 09:31:37;;;;;;;79.57;33.70;;;;;;;3.69;60.97;103107.78;6179138;23;20023;-66
2023/01/21 09:34:04;;;;;;;74.60;33.45;;;;;;;3.71;60.96;103111.31;6179375;23;20451;-65
2023/01/21 09:36:33;;;;;;;78.28;33.20;;;;;;;3.76;60.86;103112.19;6179859;23;20111;-66
2023/01/21 09:38:59;;;;;;;80.72;31.67;;;;;;;3.79;60.97;103120.13;6153408;23;20017;-66
2023/01/21 09:41:32;;;;;;;78.38;32.67;;;;;;;3.83;60.88;103118.34;6153274;23;20024;-66
2023/01/21 09:44:27;;;;;;;74.18;33.25;;;;;;;3.88;60.91;103118.31;6179324;23;20017;-65
2023/01/21 09:47:25;;;;;;;70.80;29.52;;;;;;;3.92;61.00;103125.38;6180011;22;20328;-66
2023/01/21 09:49:59;;;;;;;75.55;32.92;;;;;;;3.96;60.92;103130.66;6178976;23;20017;-66
2023/01/21 09:52:36;;;;;;;71.20;31.38;;;;;;;4.01;60.96;103135.94;6179946;23;20104;-68
2023/01/21 09:55:05;;;;;;;67.65;31.33;;;;;;;4.07;61.02;103135.88;6181248;23;20017;-66
2023/01/21 09:57:59;;;;;;;64.35;32.10;;;;;;;4.11;61.08;103137.63;6181033;23;20321;-67
2023/01/21 10:00:32;;;;;;;75.32;33.10;;;;;;;4.17;60.93;103148.22;6180754;23;20017;-66
2023/01/21 10:03:03;;;;;;;68.68;32.55;;;;;;;4.21;60.87;103141.09;6181367;22;20483;-66
2023/01/21 10:05:47;;;;;;;70.75;32.08;;;;;;;4.26;61.00;103140.16;6182913;23;20024;-66
2023/01/21 10:08:31;;;;;;;75.38;33.15;;;;;;;4.34;60.88;103148.09;6156226;23;20009;-66
2023/01/21 10:11:17;;;;;;;70.90;31.52;;;;;;;4.40;60.89;103135.59;6181760;23;20013;-66
2023/01/21 10:14:07;;;;;;;66.78;31.23;;;;;;;4.44;60.92;103142.66;6181103;23;20568;-66
2023/01/21 10:17:01;;;;;;;73.45;32.40;;;;;;;4.50;60.84;103144.41;6182069;23;20436;-67
2023/01/21 10:19:35;;;;;;;64.30;30.30;;;;;;;4.61;60.88;103154.97;6182180;23;20071;-67
2023/01/21 10:22:11;;;;;;;69.60;31.73;;;;;;;4.68;60.62;103143.38;6181820;23;20100;-66
2023/01/21 10:24:45;;;;;;;67.90;32.00;;;;;;;4.77;60.92;103151.25;6182188;22;20037;-67
2023/01/21 10:27:18;;;;;;;70.65;33.00;;;;;;;4.86;60.89;103145.84;6181170;22;20028;-67
2023/01/21 10:29:49;;;;;;;63.88;31.35;;;;;;;4.94;60.99;103143.97;6182004;22;20017;-66
2023/01/21 10:32:19;;;;;;;67.35;31.65;;;;;;;5.04;60.93;103136.75;6181134;23;20017;-67
2023/01/21 10:34:50;;;;;;;64.75;31.10;;;;;;;5.11;60.77;103134.00;6181768;23;20092;-66
2023/01/21 10:37:33;;;;;;;62.03;31.15;;;;;;;5.21;60.82;103131.25;6182270;23;20013;-67
2023/01/21 10:40:41;;;;;;;58.70;30.10;;;;;;;5.29;60.73;103132.94;6181130;22;20028;-66
2023/01/21 10:43:12;;;;;;;62.15;29.38;;;;;;;5.43;60.66;103135.41;6181261;23;20020;-66
2023/01/21 10:46:05;;;;;;;52.92;29.17;;;;;;;5.54;60.68;103140.59;6182203;22;20336;-67
2023/01/21 10:48:51;;;;;;;55.45;28.13;;;;;;;5.65;60.65;103142.22;6181518;23;20386;-67
2023/01/21 10:51:28;;;;;;;50.63;27.92;;;;;;;5.77;60.62;103134.94;6181976;22;20045;-66
2023/01/21 10:54:02;;;;;;;48.95;25.63;;;;;;;5.89;60.47;103137.44;6180763;22;20470;-66
2023/01/21 10:56:44;;;;;;;49.65;27.17;;;;;;;6.00;60.40;103128.44;6181891;23;20021;-66
2023/01/21 10:59:17;;;;;;;42.75;24.27;;;;;;;6.10;60.21;103131.81;6181218;23;20025;-67
2023/01/21 11:02:00;;;;;;;46.00;24.98;;;;;;;6.20;60.17;103128.09;6181551;23;20071;-68
2023/01/21 11:04:27;;;;;;;48.55;26.60;;;;;;;6.31;60.21;103126.13;6181756;23;20017;-67
2023/01/21 11:07:00;;;;;;;44.25;25.13;;;;;;;6.42;60.07;103123.28;6182003;23;20424;-67
2023/01/21 11:09:56;;;;;;;47.80;25.73;;;;;;;6.53;59.84;103123.97;6181600;23;20017;-67
2023/01/21 11:12:23;;;;;;;41.00;25.35;;;;;;;6.65;59.79;103125.53;6187858;23;20031;-68
2023/01/21 11:14:56;;;;;;;42.25;25.35;;;;;;;6.73;59.60;103126.31;6181418;23;20009;-67
2023/01/21 11:17:52;;;;;;;41.15;23.70;;;;;;;6.80;59.23;103124.41;6181604;23;20017;-67
2023/01/21 11:20:26;;;;;;;41.55;23.70;;;;;;;6.88;59.34;103125.13;6182210;23;20017;-67
2023/01/21 11:22:52;;;;;;;42.40;23.77;;;;;;;6.93;59.13;103121.47;6181290;23;20028;-67
2023/01/21 11:25:40;;;;;;;41.47;23.15;;;;;;;6.98;58.90;103124.91;6180657;22;20017;-73
2023/01/21 11:28:25;;;;;;;39.83;23.02;;;;;;;7.04;58.68;103121.25;6181887;23;20070;-71
2023/01/21 11:31:03;;;;;;;40.78;24.30;;;;;;;7.07;58.46;103123.84;6181786;23;20021;-70
2023/01/21 11:33:30;;;;;;;42.70;23.50;;;;;;;7.10;58.29;103125.59;6180262;23;20025;-65
2023/01/21 11:36:10;;;;;;;36.97;22.58;;;;;;;7.10;58.15;103118.44;6180798;22;20025;-72